createdAt,value
2022-12-25T00:01:45.739Z,25.70
2022-12-25T00:04:13.284Z,24.98
2022-12-25T00:06:40.838Z,24.50
2022-12-25T00:09:08.264Z,22.45
2022-12-25T00:11:35.737Z,22.45
2022-12-25T00:14:03.180Z,22.05
2022-12-25T00:16:30.955Z,21.42
2022-12-25T00:19:01.550Z,21.10
2022-12-25T00:21:29.167Z,20.50
2022-12-25T00:23:58.424Z,20.20
2022-12-25T00:26:27.765Z,20.23
2022-12-25T00:28:59.011Z,20.98
2022-12-25T00:31:26.932Z,19.58
2022-12-25T00:33:54.566Z,20.35
2022-12-25T00:36:23.295Z,19.70
2022-12-25T00:38:50.881Z,19.60
2022-12-25T00:41:42.365Z,20.00
2022-12-25T00:44:12.785Z,20.08
2022-12-25T00:46:41.450Z,20.27
2022-12-25T00:49:09.792Z,20.30
2022-12-25T00:51:37.306Z,20.60
2022-12-25T00:54:04.861Z,20.25
2022-12-25T00:56:32.334Z,20.17
2022-12-25T00:58:59.762Z,19.85
2022-12-25T01:01:27.292Z,19.90
2022-12-25T01:03:55.644Z,20.10
2022-12-25T01:06:23.050Z,19.50
2022-12-25T01:09:09.238Z,19.67
2022-12-25T01:11:37.011Z,19.58
2022-12-25T01:14:04.888Z,19.38
2022-12-25T01:16:32.512Z,17.73
2022-12-25T01:19:00.092Z,18.63
2022-12-25T01:21:27.621Z,17.17
2022-12-25T01:23:55.166Z,18.05
2022-12-25T01:26:24.335Z,17.60
2022-12-25T01:28:52.319Z,15.98
2022-12-25T01:31:22.712Z,17.10
2022-12-25T01:33:50.978Z,16.48
2022-12-25T01:36:25.228Z,16.17
2022-12-25T01:38:54.260Z,16.10
2022-12-25T01:41:24.648Z,15.65
2022-12-25T01:44:09.069Z,15.95
2022-12-25T01:46:36.680Z,15.45
2022-12-25T01:49:19.112Z,13.90
2022-12-25T01:51:57.737Z,15.18
2022-12-25T01:54:31.723Z,14.40
2022-12-25T01:57:03.607Z,14.52
2022-12-25T01:59:31.314Z,14.27
2022-12-25T02:01:59.904Z,13.05
2022-12-25T02:04:39.280Z,13.18
2022-12-25T02:07:08.566Z,12.95
2022-12-25T02:09:37.963Z,12.30
2022-12-25T02:12:06.855Z,12.57
2022-12-25T02:14:36.923Z,12.13
2022-12-25T02:17:19.523Z,11.43
2022-12-25T02:20:05.114Z,11.43
2022-12-25T02:22:50.672Z,12.27
2022-12-25T02:25:34.139Z,11.57
2022-12-25T02:28:08.766Z,11.15
2022-12-25T02:30:53.622Z,10.88
2022-12-25T02:33:49.475Z,10.43
2022-12-25T02:36:23.148Z,10.95
2022-12-25T02:39:14.496Z,12.25
2022-12-25T02:41:44.067Z,11.80
2022-12-25T02:44:36.824Z,11.25
2022-12-25T02:47:45.460Z,9.93
2022-12-25T02:50:34.676Z,10.43
2022-12-25T02:53:22.445Z,10.52
2022-12-25T02:56:09.767Z,9.85
2022-12-25T02:58:58.250Z,9.30
2022-12-25T03:01:49.023Z,8.60
2022-12-25T03:04:40.370Z,8.35
2022-12-25T03:10:07.745Z,7.47
2022-12-25T03:12:41.759Z,10.90
2022-12-25T03:15:29.234Z,8.45
2022-12-25T03:18:01.748Z,8.57
2022-12-25T03:20:49.175Z,8.07
2022-12-25T03:23:39.123Z,7.80
2022-12-25T03:26:25.983Z,7.68
2022-12-25T03:28:53.425Z,7.50
2022-12-25T03:31:28.170Z,7.28
2022-12-25T03:34:16.949Z,7.15
2022-12-25T03:37:41.025Z,7.43
2022-12-25T03:40:45.537Z,7.28
2022-12-25T03:43:51.425Z,7.05
2022-12-25T03:46:39.888Z,6.85
2022-12-25T03:49:40.773Z,6.85
2022-12-25T03:52:30.810Z,7.30
2022-12-25T03:55:19.931Z,7.05
2022-12-25T03:58:06.284Z,6.70
2022-12-25T04:00:52.413Z,5.50
2022-12-25T04:03:38.411Z,5.97
2022-12-25T04:06:24.834Z,4.90
2022-12-25T04:09:11.002Z,5.80
2022-12-25T04:12:02.230Z,5.25
2022-12-25T04:14:49.044Z,5.68
2022-12-25T04:17:34.987Z,6.18
2022-12-25T04:20:20.902Z,5.80
2022-12-25T04:23:06.703Z,5.18
2022-12-25T04:25:52.375Z,5.55
2022-12-25T04:28:38.520Z,5.93
2022-12-25T04:31:25.649Z,5.18
2022-12-25T04:34:11.509Z,5.30
2022-12-25T04:36:38.938Z,5.47
2022-12-25T04:39:06.420Z,6.15
2022-12-25T04:41:33.817Z,5.63
2022-12-25T04:44:01.276Z,5.80
2022-12-25T04:46:28.927Z,5.70
2022-12-25T04:48:56.607Z,5.13
2022-12-25T04:51:26.132Z,5.20
2022-12-25T04:53:54.101Z,6.05
2022-12-25T04:56:22.676Z,5.55
2022-12-25T04:58:50.144Z,5.85
2022-12-25T05:01:17.755Z,6.32
2022-12-25T05:03:45.562Z,5.90
2022-12-25T05:06:13.087Z,6.15
2022-12-25T05:08:40.559Z,7.75
2022-12-25T05:11:10.954Z,8.07
2022-12-25T05:13:38.708Z,7.60
2022-12-25T05:16:14.472Z,6.88
2022-12-25T05:18:42.254Z,6.80
2022-12-25T05:21:11.992Z,8.90
2022-12-25T05:23:39.619Z,9.15
2022-12-25T05:26:08.123Z,9.75
2022-12-25T05:28:35.911Z,7.30
2022-12-25T05:31:11.851Z,7.00
2022-12-25T05:33:39.439Z,5.95
2022-12-25T05:36:12.245Z,6.13
2022-12-25T05:38:39.832Z,6.40
2022-12-25T05:41:07.214Z,6.38
2022-12-25T05:43:34.710Z,6.28
2022-12-25T05:46:07.262Z,5.13
2022-12-25T05:48:36.962Z,6.07
2022-12-25T05:51:10.104Z,7.70
2022-12-25T05:53:38.321Z,5.80
2022-12-25T05:56:08.210Z,5.25
2022-12-25T05:58:39.167Z,6.43
2022-12-25T06:01:22.108Z,6.05
2022-12-25T06:03:49.633Z,5.13
2022-12-25T06:06:17.168Z,5.30
2022-12-25T06:08:44.872Z,4.72
2022-12-25T06:11:14.183Z,5.97
2022-12-25T06:13:42.299Z,6.05
2022-12-25T06:16:11.728Z,6.18
2022-12-25T06:18:43.664Z,6.43
2022-12-25T06:21:13.372Z,7.03
2022-12-25T06:23:41.607Z,7.15
2022-12-25T06:26:12.545Z,6.90
2022-12-25T06:28:40.557Z,6.45
2022-12-25T06:31:10.932Z,6.00
2022-12-25T06:33:39.547Z,6.80
2022-12-25T06:36:12.655Z,6.82
2022-12-25T06:38:40.301Z,6.18
2022-12-25T06:41:13.295Z,6.10
2022-12-25T06:43:40.847Z,5.90
2022-12-25T06:46:11.909Z,6.20
2022-12-25T06:48:41.206Z,6.00
2022-12-25T06:51:08.618Z,6.88
2022-12-25T06:53:40.297Z,6.85
2022-12-25T06:56:15.727Z,6.65
2022-12-25T06:58:51.439Z,5.97
2022-12-25T07:01:46.757Z,6.10
2022-12-25T07:04:38.245Z,7.57
2022-12-25T07:07:09.213Z,8.98
2022-12-25T07:09:39.126Z,7.32
2022-12-25T07:12:13.980Z,5.63
2022-12-25T07:14:41.947Z,5.25
2022-12-25T07:17:09.346Z,4.85
2022-12-25T07:19:42.747Z,4.95
2022-12-25T07:22:12.658Z,6.30
2022-12-25T07:24:40.124Z,6.00
2022-12-25T07:27:08.531Z,6.43
2022-12-25T07:29:35.977Z,5.53
2022-12-25T07:32:03.585Z,4.28
2022-12-25T07:34:31.119Z,5.30
2022-12-25T07:36:58.485Z,8.73
2022-12-25T07:39:25.920Z,11.85
2022-12-25T07:41:53.310Z,10.40
2022-12-25T07:44:20.727Z,8.23
2022-12-25T07:46:48.585Z,6.50
2022-12-25T07:49:15.997Z,4.32
2022-12-25T07:51:43.440Z,7.18
2022-12-25T07:54:10.844Z,4.82
2022-12-25T07:56:38.285Z,3.22
2022-12-25T07:59:05.642Z,4.25
2022-12-25T08:01:33.308Z,4.13
2022-12-25T08:04:02.434Z,5.00
2022-12-25T08:06:32.340Z,4.75
2022-12-25T08:09:06.589Z,5.75
2022-12-25T08:11:34.007Z,5.50
2022-12-25T08:14:01.538Z,5.20
2022-12-25T08:16:29.114Z,5.95
2022-12-25T08:18:56.542Z,3.50
2022-12-25T08:21:23.992Z,31.95
2022-12-25T08:23:51.584Z,33.85
2022-12-25T08:26:21.570Z,74.00
2022-12-25T08:28:50.253Z,59.40
2022-12-25T08:31:30.479Z,169.75
2022-12-25T08:33:58.819Z,87.90
2022-12-25T08:36:26.876Z,109.05
2022-12-25T08:39:02.488Z,17.15
2022-12-25T08:41:31.812Z,18.80
2022-12-25T08:43:59.287Z,15.75
2022-12-25T08:46:26.906Z,9.63
2022-12-25T08:48:56.923Z,6.32
2022-12-25T08:51:26.169Z,4.70
2022-12-25T08:53:58.127Z,3.58
2022-12-25T08:56:25.841Z,3.90
2022-12-25T08:58:53.311Z,8.60
2022-12-25T09:01:20.839Z,10.43
2022-12-25T09:03:48.389Z,9.82
2022-12-25T09:06:16.770Z,12.30
2022-12-25T09:08:49.328Z,7.38
2022-12-25T09:11:19.417Z,8.57
2022-12-25T09:13:47.772Z,13.68
2022-12-25T09:16:18.262Z,9.18
2022-12-25T09:18:45.888Z,2.83
2022-12-25T09:21:15.582Z,2.20
2022-12-25T09:23:43.570Z,2.13
2022-12-25T09:26:13.482Z,2.33
2022-12-25T09:28:46.619Z,4.50
2022-12-25T09:31:16.378Z,3.08
2022-12-25T09:33:44.111Z,3.35
2022-12-25T09:36:11.787Z,3.58
2022-12-25T09:38:39.305Z,4.53
2022-12-25T09:41:22.069Z,3.92
2022-12-25T09:43:55.352Z,3.42
2022-12-25T09:46:30.170Z,3.90
2022-12-25T09:49:15.445Z,4.25
2022-12-25T09:51:45.970Z,3.00
2022-12-25T09:54:57.289Z,2.25
2022-12-25T09:57:25.780Z,2.10
2022-12-25T09:59:56.682Z,3.00
2022-12-25T10:02:39.897Z,3.17
2022-12-25T10:06:11.922Z,2.92
2022-12-25T10:08:54.367Z,2.30
2022-12-25T10:11:34.522Z,2.40
2022-12-25T10:14:14.382Z,2.80
2022-12-25T10:17:09.691Z,4.00
2022-12-25T10:20:26.693Z,3.33
2022-12-25T10:22:59.510Z,3.65
2022-12-25T10:25:27.792Z,3.15
2022-12-25T10:28:04.060Z,2.80
2022-12-25T10:30:32.558Z,2.53
2022-12-25T10:33:00.927Z,2.90
2022-12-25T10:35:30.139Z,2.50
2022-12-25T10:38:03.200Z,3.20
2022-12-25T10:40:53.942Z,2.80
2022-12-25T10:43:37.130Z,2.20
2022-12-25T10:46:12.232Z,1.98
2022-12-25T10:48:44.834Z,2.58
2022-12-25T10:51:12.517Z,2.28
2022-12-25T10:53:43.744Z,1.85
2022-12-25T10:56:19.072Z,53.03
2022-12-25T10:58:46.607Z,29.35
2022-12-25T11:01:14.623Z,36.13
2022-12-25T11:03:52.376Z,4.15
2022-12-25T11:06:28.362Z,16.35
2022-12-25T11:08:58.660Z,10.77
2022-12-25T11:11:27.910Z,14.00
2022-12-25T11:14:01.204Z,31.23
2022-12-25T11:16:38.262Z,4.35
2022-12-25T11:19:24.565Z,14.50
2022-12-25T11:21:56.008Z,3.47
2022-12-25T11:24:28.255Z,2.35
2022-12-25T11:26:59.232Z,3.30
2022-12-25T11:29:49.658Z,1.80
2022-12-25T11:32:28.041Z,3.17
2022-12-25T11:34:56.331Z,1.65
2022-12-25T11:37:40.764Z,2.65
2022-12-25T11:40:32.934Z,2.90
2022-12-25T11:43:33.901Z,4.00
2022-12-25T11:46:17.215Z,1.50
2022-12-25T11:48:56.258Z,2.47
2022-12-25T11:51:32.705Z,4.15
2022-12-25T11:54:28.569Z,5.45
2022-12-25T11:57:00.180Z,2.45
2022-12-25T11:59:36.126Z,2.42
2022-12-25T12:02:26.183Z,2.58
2022-12-25T12:05:14.926Z,2.47
2022-12-25T12:08:02.516Z,2.47
2022-12-25T12:10:36.332Z,3.38
2022-12-25T12:13:31.446Z,2.42
2022-12-25T12:15:59.063Z,2.20
2022-12-25T12:18:26.582Z,2.65
2022-12-25T12:21:05.715Z,3.22
2022-12-25T12:23:57.392Z,3.60
2022-12-25T12:26:27.747Z,4.85
2022-12-25T12:28:59.454Z,3.45
2022-12-25T12:31:45.277Z,2.90
2022-12-25T12:34:42.610Z,3.22
2022-12-25T12:37:37.517Z,3.33
2022-12-25T12:40:07.302Z,3.30
2022-12-25T12:42:45.308Z,4.40
2022-12-25T12:45:19.145Z,3.10
2022-12-25T12:47:51.191Z,3.40
2022-12-25T12:50:44.852Z,3.33
2022-12-25T12:53:24.007Z,3.03
2022-12-25T12:55:52.631Z,3.45
2022-12-25T12:58:27.809Z,4.07
2022-12-25T13:01:05.020Z,3.83
2022-12-25T13:04:07.163Z,4.45
2022-12-25T13:06:40.205Z,3.67
2022-12-25T13:09:40.382Z,3.92
2022-12-25T13:12:09.091Z,4.85
2022-12-25T13:14:38.155Z,5.03
2022-12-25T13:17:08.837Z,5.22
2022-12-25T13:19:37.711Z,5.20
2022-12-25T13:22:07.013Z,5.50
2022-12-25T13:24:36.651Z,5.55
2022-12-25T13:27:30.816Z,6.20
2022-12-25T13:29:59.325Z,4.90
2022-12-25T13:32:31.885Z,4.32
2022-12-25T13:35:00.400Z,5.72
2022-12-25T13:37:30.386Z,5.95
2022-12-25T13:40:04.012Z,5.85
2022-12-25T13:42:36.755Z,5.68
2022-12-25T13:45:08.039Z,5.57
2022-12-25T13:47:38.552Z,5.28
2022-12-25T13:50:24.641Z,5.03
2022-12-25T13:52:53.325Z,5.47
2022-12-25T13:55:29.167Z,6.35
2022-12-25T13:57:59.406Z,7.35
2022-12-25T14:00:51.074Z,6.15
2022-12-25T14:03:39.354Z,6.75
2022-12-25T14:06:16.678Z,6.00
2022-12-25T14:08:45.215Z,6.03
2022-12-25T14:11:16.171Z,6.10
2022-12-25T14:13:46.174Z,6.53
2022-12-25T14:16:17.154Z,7.63
2022-12-25T14:21:32.785Z,6.60
2022-12-25T14:24:00.643Z,7.32
2022-12-25T14:26:33.606Z,9.00
2022-12-25T14:29:15.582Z,8.65
2022-12-25T14:31:46.999Z,7.68
2022-12-25T14:34:20.921Z,7.53
2022-12-25T14:36:49.140Z,6.70
2022-12-25T14:39:36.440Z,6.75
2022-12-25T14:42:23.084Z,7.60
2022-12-25T14:45:03.561Z,7.78
2022-12-25T14:47:33.805Z,8.00
2022-12-25T14:50:01.345Z,8.20
2022-12-25T14:52:32.559Z,8.50
2022-12-25T14:55:03.093Z,10.57
2022-12-25T14:57:34.198Z,9.70
2022-12-25T15:00:21.883Z,10.10
2022-12-25T15:02:50.971Z,10.25
2022-12-25T15:05:39.150Z,8.82
2022-12-25T15:08:10.415Z,7.55
2022-12-25T15:13:27.207Z,7.72
2022-12-25T15:16:12.317Z,9.50
2022-12-25T15:18:43.491Z,8.15
2022-12-25T15:23:45.275Z,10.63
2022-12-25T15:26:16.066Z,87.78
2022-12-25T15:28:43.448Z,59.88
2022-12-25T15:31:26.351Z,33.25
2022-12-25T15:33:56.470Z,20.50
2022-12-25T15:36:25.253Z,16.60
2022-12-25T15:38:53.223Z,45.25
2022-12-25T15:41:43.173Z,19.80
2022-12-25T15:44:12.826Z,12.20
2022-12-25T15:46:40.462Z,12.60
2022-12-25T15:49:07.868Z,8.98
2022-12-25T15:51:35.340Z,8.52
2022-12-25T15:54:02.941Z,7.22
2022-12-25T15:56:33.362Z,7.65
2022-12-25T15:59:00.707Z,9.38
2022-12-25T16:01:28.189Z,10.40
2022-12-25T16:03:55.662Z,9.25
2022-12-25T16:06:23.330Z,7.88
2022-12-25T16:08:50.702Z,10.80
2022-12-25T16:11:18.084Z,9.55
2022-12-25T16:13:45.471Z,10.43
2022-12-25T16:16:13.393Z,8.57
2022-12-25T16:18:46.887Z,8.43
2022-12-25T16:21:19.071Z,7.70
2022-12-25T16:23:46.468Z,9.55
2022-12-25T16:26:14.070Z,11.02
2022-12-25T16:28:41.461Z,10.98
2022-12-25T16:31:09.474Z,9.77
2022-12-25T16:33:37.050Z,9.80
2022-12-25T16:36:04.985Z,13.10
2022-12-25T16:38:32.462Z,12.65
2022-12-25T16:41:01.189Z,19.60
2022-12-25T16:43:29.042Z,15.90
2022-12-25T16:45:57.649Z,25.33
2022-12-25T16:48:25.306Z,10.52
2022-12-25T16:50:53.047Z,8.20
2022-12-25T16:53:20.525Z,7.72
2022-12-25T16:55:48.081Z,9.20
2022-12-25T16:58:15.523Z,11.25
2022-12-25T17:00:48.860Z,10.27
2022-12-25T17:03:16.864Z,9.02
2022-12-25T17:05:44.624Z,8.80
2022-12-25T17:08:12.032Z,7.55
2022-12-25T17:10:39.688Z,7.63
2022-12-25T17:13:07.888Z,10.35
2022-12-25T17:15:35.531Z,7.78
2022-12-25T17:18:03.005Z,7.38
2022-12-25T17:20:30.569Z,8.75
2022-12-25T17:22:58.232Z,7.55
2022-12-25T17:25:27.693Z,8.68
2022-12-25T17:27:55.278Z,9.05
2022-12-25T17:30:22.658Z,8.55
2022-12-25T17:32:50.797Z,9.93
2022-12-25T17:35:20.783Z,8.45
2022-12-25T17:37:48.193Z,9.70
2022-12-25T17:40:15.877Z,9.10
2022-12-25T17:42:43.417Z,9.95
2022-12-25T17:45:11.398Z,12.27
2022-12-25T17:47:38.937Z,9.35
2022-12-25T17:50:07.326Z,11.55
2022-12-25T17:52:34.702Z,9.88
2022-12-25T17:55:02.161Z,7.68
2022-12-25T17:57:29.671Z,11.35
2022-12-25T17:59:57.166Z,11.60
2022-12-25T18:02:24.946Z,8.68
2022-12-25T18:04:52.509Z,11.18
2022-12-25T18:07:20.035Z,11.32
2022-12-25T18:09:47.491Z,10.60
2022-12-25T18:12:15.063Z,11.13
2022-12-25T18:14:42.532Z,11.45
2022-12-25T18:17:10.169Z,14.98
2022-12-25T18:19:37.659Z,16.08
2022-12-25T18:22:05.179Z,21.05
2022-12-25T18:24:32.646Z,29.60
2022-12-25T18:26:59.982Z,24.40
2022-12-25T18:29:27.703Z,22.02
2022-12-25T18:31:55.997Z,12.35
2022-12-25T18:34:23.598Z,11.55
2022-12-25T18:36:51.241Z,11.90
2022-12-25T18:39:18.692Z,12.30
2022-12-25T18:42:04.391Z,9.82
2022-12-25T18:44:31.806Z,9.82
2022-12-25T18:46:59.191Z,9.05
2022-12-25T18:49:26.534Z,9.93
2022-12-25T18:51:54.356Z,10.38
2022-12-25T18:54:42.097Z,9.95
2022-12-25T18:57:09.477Z,10.25
2022-12-25T18:59:37.503Z,11.32
2022-12-25T19:02:05.191Z,30.38
2022-12-25T19:04:35.106Z,11.82
2022-12-25T19:07:02.863Z,9.85
2022-12-25T19:09:31.440Z,10.95
2022-12-25T19:12:01.751Z,12.35
2022-12-25T19:14:29.235Z,11.88
2022-12-25T19:16:56.844Z,10.82
2022-12-25T19:19:25.136Z,10.75
2022-12-25T19:21:57.303Z,9.93
2022-12-25T19:24:25.384Z,10.45
2022-12-25T19:26:52.984Z,11.57
2022-12-25T19:29:20.476Z,10.88
2022-12-25T19:31:48.167Z,11.35
2022-12-25T19:34:15.805Z,11.23
2022-12-25T19:36:44.958Z,11.10
2022-12-25T19:39:12.810Z,10.68
2022-12-25T19:41:40.439Z,14.63
2022-12-25T19:44:09.157Z,20.40
2022-12-25T19:46:39.248Z,22.27
2022-12-25T19:49:07.981Z,22.33
2022-12-25T19:51:41.738Z,23.10
2022-12-25T19:54:14.199Z,15.23
2022-12-25T19:56:42.865Z,15.95
2022-12-25T19:59:12.188Z,15.75
2022-12-25T20:01:39.814Z,17.58
2022-12-25T20:04:09.942Z,15.40
2022-12-25T20:06:40.376Z,16.20
2022-12-25T20:09:11.599Z,10.43
2022-12-25T20:14:27.349Z,19.60
2022-12-25T20:16:55.070Z,22.23
2022-12-25T20:19:22.753Z,21.77
2022-12-25T20:21:50.164Z,19.20
2022-12-25T20:24:17.709Z,19.73
2022-12-25T20:26:47.752Z,17.95
2022-12-25T20:29:15.835Z,16.58
2022-12-25T20:31:43.390Z,15.30
2022-12-25T20:34:11.594Z,13.73
2022-12-25T20:36:39.266Z,12.75
2022-12-25T20:39:10.012Z,13.07
2022-12-25T20:41:38.799Z,16.10
2022-12-25T20:44:08.648Z,12.75
2022-12-25T20:46:37.331Z,12.88
2022-12-25T20:49:05.065Z,10.48
2022-12-25T20:51:32.566Z,11.98
2022-12-25T20:54:00.112Z,9.32
2022-12-25T20:56:27.819Z,9.70
2022-12-25T20:58:57.387Z,9.70
2022-12-25T21:01:25.000Z,9.63
2022-12-25T21:03:53.123Z,8.13
2022-12-25T21:06:21.391Z,7.47
2022-12-25T21:08:48.814Z,7.22
2022-12-25T21:11:17.658Z,7.88
2022-12-25T21:13:46.307Z,7.88
2022-12-25T21:16:17.131Z,8.48
2022-12-25T21:21:13.468Z,9.90
2022-12-25T21:23:41.236Z,11.63
2022-12-25T21:26:29.065Z,13.20
2022-12-25T21:29:00.431Z,11.23
2022-12-25T21:31:28.512Z,14.43
2022-12-25T21:33:57.740Z,11.27
2022-12-25T21:36:34.280Z,13.27
2022-12-25T21:39:04.705Z,12.23
2022-12-25T21:41:33.264Z,12.00
2022-12-25T21:44:01.040Z,12.98
2022-12-25T21:46:28.581Z,11.57
2022-12-25T21:48:56.215Z,12.00
2022-12-25T21:51:45.909Z,10.45
2022-12-25T21:54:14.188Z,9.07
2022-12-25T21:56:45.435Z,9.90
2022-12-25T21:59:19.963Z,12.50
2022-12-25T22:01:48.280Z,12.07
2022-12-25T22:04:17.379Z,11.55
2022-12-25T22:07:03.729Z,10.98
2022-12-25T22:09:31.430Z,12.73
2022-12-25T22:12:18.561Z,13.43
2022-12-25T22:14:57.140Z,11.27
2022-12-25T22:17:45.917Z,10.23
2022-12-25T22:20:34.700Z,10.48
2022-12-25T22:23:03.016Z,9.35
2022-12-25T22:25:30.575Z,9.25
2022-12-25T22:27:58.063Z,9.15
2022-12-25T22:30:28.580Z,9.00
2022-12-25T22:32:56.575Z,9.95
2022-12-25T22:35:24.170Z,9.18
2022-12-25T22:37:51.881Z,9.63
2022-12-25T22:40:20.334Z,9.68
2022-12-25T22:42:47.925Z,10.05
2022-12-25T22:45:15.531Z,9.52
2022-12-25T22:47:43.278Z,9.38
2022-12-25T22:50:12.538Z,10.23
2022-12-25T22:52:39.892Z,11.38
2022-12-25T22:55:08.881Z,10.15
2022-12-25T22:57:36.703Z,10.68
2022-12-25T23:00:06.655Z,10.77
2022-12-25T23:02:35.318Z,9.38
2022-12-25T23:05:03.577Z,9.98
2022-12-25T23:07:31.034Z,9.73
2022-12-25T23:09:58.515Z,9.82
2022-12-25T23:12:44.373Z,9.25
2022-12-25T23:15:11.832Z,10.23
2022-12-25T23:17:57.662Z,10.65
2022-12-25T23:20:43.592Z,10.05
2022-12-25T23:23:34.769Z,10.95
2022-12-25T23:28:59.611Z,12.13
2022-12-25T23:31:35.589Z,13.18
2022-12-25T23:34:04.825Z,11.63
2022-12-25T23:36:32.994Z,12.90
2022-12-25T23:39:08.659Z,12.65
2022-12-25T23:41:37.089Z,12.30
2022-12-25T23:44:04.699Z,10.57
2022-12-25T23:46:32.369Z,11.27
2022-12-25T23:48:59.963Z,11.13
2022-12-25T23:51:27.324Z,9.60
2022-12-25T23:53:54.670Z,11.63
2022-12-25T23:56:22.467Z,10.30
2022-12-25T23:58:52.085Z,9.73
